sensor_id;sensor_type;location;lat;lon;timestamp;temperature;humidity
39103;DHT22;24847;48.218;16.414;2023-07-09T00:02:09;22.80;99.90
39103;DHT22;24847;48.218;16.414;2023-07-09T00:07:18;22.80;99.90
39103;DHT22;24847;48.218;16.414;2023-07-09T00:12:21;22.70;99.90
39103;DHT22;24847;48.218;16.414;2023-07-09T00:17:29;22.60;99.90
39103;DHT22;24847;48.218;16.414;2023-07-09T00:22:34;22.70;99.90
39103;DHT22;24847;48.218;16.414;2023-07-09T00:27:36;22.90;99.90
39103;DHT22;24847;48.218;16.414;2023-07-09T00:32:40;22.90;99.90
39103;DHT22;24847;48.218;16.414;2023-07-09T00:37:45;22.80;99.90
39103;DHT22;24847;48.218;16.414;2023-07-09T00:42:50;22.70;99.90
39103;DHT22;24847;48.218;16.414;2023-07-09T00:47:57;22.40;99.90
39103;DHT22;24847;48.218;16.414;2023-07-09T00:53:04;22.10;99.90
39103;DHT22;24847;48.218;16.414;2023-07-09T00:58:10;22.10;99.90
39103;DHT22;24847;48.218;16.414;2023-07-09T01:03:23;22.40;99.90
39103;DHT22;24847;48.218;16.414;2023-07-09T01:08:32;22.10;99.90
39103;DHT22;24847;48.218;16.414;2023-07-09T01:13:36;22.20;99.90
39103;DHT22;24847;48.218;16.414;2023-07-09T01:18:41;22.00;99.90
39103;DHT22;24847;48.218;16.414;2023-07-09T01:23:47;21.90;99.90
39103;DHT22;24847;48.218;16.414;2023-07-09T01:28:50;22.00;99.90
39103;DHT22;24847;48.218;16.414;2023-07-09T01:33:52;21.70;99.90
39103;DHT22;24847;48.218;16.414;2023-07-09T01:38:56;21.60;99.90
39103;DHT22;24847;48.218;16.414;2023-07-09T01:43:59;21.70;99.90
39103;DHT22;24847;48.218;16.414;2023-07-09T01:49:01;21.60;99.90
39103;DHT22;24847;48.218;16.414;2023-07-09T01:54:05;21.70;99.90
39103;DHT22;24847;48.218;16.414;2023-07-09T01:59:08;21.50;99.90
39103;DHT22;24847;48.218;16.414;2023-07-09T02:04:11;21.10;99.90
39103;DHT22;24847;48.218;16.414;2023-07-09T02:09:15;21.00;99.90
39103;DHT22;24847;48.218;16.414;2023-07-09T02:14:17;20.80;99.90
39103;DHT22;24847;48.218;16.414;2023-07-09T02:19:20;20.90;99.90
39103;DHT22;24847;48.218;16.414;2023-07-09T02:24:24;20.90;99.90
39103;DHT22;24847;48.218;16.414;2023-07-09T02:29:29;21.20;99.90
39103;DHT22;24847;48.218;16.414;2023-07-09T02:34:31;21.10;99.90
39103;DHT22;24847;48.218;16.414;2023-07-09T02:39:37;20.90;99.90
39103;DHT22;24847;48.218;16.414;2023-07-09T02:44:40;20.80;99.90
39103;DHT22;24847;48.218;16.414;2023-07-09T02:49:43;20.70;99.90
39103;DHT22;24847;48.218;16.414;2023-07-09T02:54:46;20.30;99.90
39103;DHT22;24847;48.218;16.414;2023-07-09T02:59:48;20.50;99.90
39103;DHT22;24847;48.218;16.414;2023-07-09T03:04:51;20.60;99.90
39103;DHT22;24847;48.218;16.414;2023-07-09T03:09:54;20.70;99.90
39103;DHT22;24847;48.218;16.414;2023-07-09T03:14:56;20.90;99.90
39103;DHT22;24847;48.218;16.414;2023-07-09T03:19:58;20.50;99.90
39103;DHT22;24847;48.218;16.414;2023-07-09T03:25:02;20.50;99.90
39103;DHT22;24847;48.218;16.414;2023-07-09T03:30:06;20.60;99.90
39103;DHT22;24847;48.218;16.414;2023-07-09T03:35:09;20.30;99.90
39103;DHT22;24847;48.218;16.414;2023-07-09T03:40:21;20.90;99.90
39103;DHT22;24847;48.218;16.414;2023-07-09T03:45:24;20.90;99.90
39103;DHT22;24847;48.218;16.414;2023-07-09T03:50:26;20.50;99.90
39103;DHT22;24847;48.218;16.414;2023-07-09T03:55:30;20.50;99.90
39103;DHT22;24847;48.218;16.414;2023-07-09T04:00:33;20.30;99.90
39103;DHT22;24847;48.218;16.414;2023-07-09T04:05:35;20.40;99.90
39103;DHT22;24847;48.218;16.414;2023-07-09T04:10:39;20.60;99.90
39103;DHT22;24847;48.218;16.414;2023-07-09T04:15:41;20.40;99.90
39103;DHT22;24847;48.218;16.414;2023-07-09T04:20:45;20.50;99.90
39103;DHT22;24847;48.218;16.414;2023-07-09T04:25:51;20.50;99.90
39103;DHT22;24847;48.218;16.414;2023-07-09T04:30:53;20.60;99.90
39103;DHT22;24847;48.218;16.414;2023-07-09T04:35:56;20.80;99.90
39103;DHT22;24847;48.218;16.414;2023-07-09T04:41:00;21.20;99.90
39103;DHT22;24847;48.218;16.414;2023-07-09T04:46:02;21.50;99.90
39103;DHT22;24847;48.218;16.414;2023-07-09T04:51:04;21.70;99.90
39103;DHT22;24847;48.218;16.414;2023-07-09T04:56:08;21.90;99.90
39103;DHT22;24847;48.218;16.414;2023-07-09T05:01:12;22.50;99.90
39103;DHT22;24847;48.218;16.414;2023-07-09T05:06:14;22.30;99.90
39103;DHT22;24847;48.218;16.414;2023-07-09T05:11:18;22.80;99.90
39103;DHT22;24847;48.218;16.414;2023-07-09T05:16:20;23.00;99.90
39103;DHT22;24847;48.218;16.414;2023-07-09T05:21:23;23.30;99.90
39103;DHT22;24847;48.218;16.414;2023-07-09T05:26:26;24.20;99.90
39103;DHT22;24847;48.218;16.414;2023-07-09T05:31:28;24.80;99.90
39103;DHT22;24847;48.218;16.414;2023-07-09T05:36:31;25.60;99.90
39103;DHT22;24847;48.218;16.414;2023-07-09T05:41:34;25.20;99.90
39103;DHT22;24847;48.218;16.414;2023-07-09T05:46:37;25.00;99.90
39103;DHT22;24847;48.218;16.414;2023-07-09T05:51:39;25.00;99.90
39103;DHT22;24847;48.218;16.414;2023-07-09T05:56:43;24.90;99.90
39103;DHT22;24847;48.218;16.414;2023-07-09T06:01:45;25.20;99.90
39103;DHT22;24847;48.218;16.414;2023-07-09T06:06:48;25.20;99.90
39103;DHT22;24847;48.218;16.414;2023-07-09T06:11:51;25.20;99.90
39103;DHT22;24847;48.218;16.414;2023-07-09T06:16:53;25.30;99.90
39103;DHT22;24847;48.218;16.414;2023-07-09T06:21:55;26.00;99.90
39103;DHT22;24847;48.218;16.414;2023-07-09T06:26:59;26.30;99.90
39103;DHT22;24847;48.218;16.414;2023-07-09T06:32:02;27.10;99.90
39103;DHT22;24847;48.218;16.414;2023-07-09T06:37:05;28.00;99.90
39103;DHT22;24847;48.218;16.414;2023-07-09T06:42:08;27.70;99.90
39103;DHT22;24847;48.218;16.414;2023-07-09T06:47:11;28.60;99.90
39103;DHT22;24847;48.218;16.414;2023-07-09T06:52:13;28.40;99.90
39103;DHT22;24847;48.218;16.414;2023-07-09T06:57:17;28.30;99.90
39103;DHT22;24847;48.218;16.414;2023-07-09T07:02:20;28.70;99.90
39103;DHT22;24847;48.218;16.414;2023-07-09T07:07:22;29.30;99.90
39103;DHT22;24847;48.218;16.414;2023-07-09T07:12:28;29.00;99.90
39103;DHT22;24847;48.218;16.414;2023-07-09T07:17:30;29.40;99.90
39103;DHT22;24847;48.218;16.414;2023-07-09T07:22:33;29.50;99.90
39103;DHT22;24847;48.218;16.414;2023-07-09T07:27:36;29.80;99.90
39103;DHT22;24847;48.218;16.414;2023-07-09T07:32:43;30.10;99.90
39103;DHT22;24847;48.218;16.414;2023-07-09T07:37:46;30.10;99.90
39103;DHT22;24847;48.218;16.414;2023-07-09T07:42:50;31.10;99.90
39103;DHT22;24847;48.218;16.414;2023-07-09T07:47:52;30.30;99.90
39103;DHT22;24847;48.218;16.414;2023-07-09T07:52:54;32.40;99.90
39103;DHT22;24847;48.218;16.414;2023-07-09T07:57:58;32.00;99.90
39103;DHT22;24847;48.218;16.414;2023-07-09T08:03:03;32.20;99.90
39103;DHT22;24847;48.218;16.414;2023-07-09T08:08:05;32.50;99.90
39103;DHT22;24847;48.218;16.414;2023-07-09T08:13:09;33.20;99.90
39103;DHT22;24847;48.218;16.414;2023-07-09T08:18:11;32.90;99.90
39103;DHT22;24847;48.218;16.414;2023-07-09T08:23:14;32.80;99.90
39103;DHT22;24847;48.218;16.414;2023-07-09T08:28:17;32.70;99.90
39103;DHT22;24847;48.218;16.414;2023-07-09T08:33:23;32.00;99.90
39103;DHT22;24847;48.218;16.414;2023-07-09T08:38:26;33.10;99.90
39103;DHT22;24847;48.218;16.414;2023-07-09T08:43:36;33.40;99.90
39103;DHT22;24847;48.218;16.414;2023-07-09T08:48:44;33.30;99.90
39103;DHT22;24847;48.218;16.414;2023-07-09T08:53:51;33.70;99.90
39103;DHT22;24847;48.218;16.414;2023-07-09T08:59:01;34.70;99.90
39103;DHT22;24847;48.218;16.414;2023-07-09T09:04:10;34.90;99.90
39103;DHT22;24847;48.218;16.414;2023-07-09T09:09:24;34.20;99.90
39103;DHT22;24847;48.218;16.414;2023-07-09T09:14:34;33.90;99.90
39103;DHT22;24847;48.218;16.414;2023-07-09T09:19:45;34.10;99.90
39103;DHT22;24847;48.218;16.414;2023-07-09T09:24:57;33.90;99.90
39103;DHT22;24847;48.218;16.414;2023-07-09T09:30:03;33.60;99.90
39103;DHT22;24847;48.218;16.414;2023-07-09T09:35:12;34.20;99.90
39103;DHT22;24847;48.218;16.414;2023-07-09T09:40:17;34.30;99.90
39103;DHT22;24847;48.218;16.414;2023-07-09T09:45:28;34.10;99.70
39103;DHT22;24847;48.218;16.414;2023-07-09T09:50:33;34.00;99.60
39103;DHT22;24847;48.218;16.414;2023-07-09T09:55:38;34.10;98.90
39103;DHT22;24847;48.218;16.414;2023-07-09T10:00:47;34.20;97.60
39103;DHT22;24847;48.218;16.414;2023-07-09T10:05:55;34.10;96.90
39103;DHT22;24847;48.218;16.414;2023-07-09T10:11:12;34.70;95.60
39103;DHT22;24847;48.218;16.414;2023-07-09T10:16:25;34.90;95.20
39103;DHT22;24847;48.218;16.414;2023-07-09T10:21:40;33.80;94.60
39103;DHT22;24847;48.218;16.414;2023-07-09T10:26:51;34.00;95.50
39103;DHT22;24847;48.218;16.414;2023-07-09T10:32:02;33.50;94.60
39103;DHT22;24847;48.218;16.414;2023-07-09T10:37:24;33.30;93.90
39103;DHT22;24847;48.218;16.414;2023-07-09T10:42:40;33.20;93.40
39103;DHT22;24847;48.218;16.414;2023-07-09T10:47:49;33.30;94.30
39103;DHT22;24847;48.218;16.414;2023-07-09T10:53:02;33.00;94.50
39103;DHT22;24847;48.218;16.414;2023-07-09T10:58:19;32.90;95.20
39103;DHT22;24847;48.218;16.414;2023-07-09T11:03:42;33.10;94.30
39103;DHT22;24847;48.218;16.414;2023-07-09T11:08:48;32.80;95.50
39103;DHT22;24847;48.218;16.414;2023-07-09T11:13:54;32.50;95.80
39103;DHT22;24847;48.218;16.414;2023-07-09T11:19:06;33.00;96.10
39103;DHT22;24847;48.218;16.414;2023-07-09T11:24:30;33.00;96.10
39103;DHT22;24847;48.218;16.414;2023-07-09T11:29:33;32.70;96.10
39103;DHT22;24847;48.218;16.414;2023-07-09T11:34:48;32.80;95.50
39103;DHT22;24847;48.218;16.414;2023-07-09T11:39:51;32.70;96.00
39103;DHT22;24847;48.218;16.414;2023-07-09T11:45:00;32.40;95.80
39103;DHT22;24847;48.218;16.414;2023-07-09T11:50:19;32.40;96.10
39103;DHT22;24847;48.218;16.414;2023-07-09T11:55:31;32.50;96.20
39103;DHT22;24847;48.218;16.414;2023-07-09T12:00:40;32.30;95.10
39103;DHT22;24847;48.218;16.414;2023-07-09T12:05:50;32.10;96.20
39103;DHT22;24847;48.218;16.414;2023-07-09T12:10:53;32.20;97.10
39103;DHT22;24847;48.218;16.414;2023-07-09T12:15:56;32.00;95.70
39103;DHT22;24847;48.218;16.414;2023-07-09T12:20:59;31.60;91.80
39103;DHT22;24847;48.218;16.414;2023-07-09T12:26:03;31.60;91.50
39103;DHT22;24847;48.218;16.414;2023-07-09T12:31:13;31.50;91.90
39103;DHT22;24847;48.218;16.414;2023-07-09T12:36:18;31.50;91.50
39103;DHT22;24847;48.218;16.414;2023-07-09T12:41:24;31.50;91.90
39103;DHT22;24847;48.218;16.414;2023-07-09T12:46:30;31.30;92.10
39103;DHT22;24847;48.218;16.414;2023-07-09T12:51:37;29.10;96.30
39103;DHT22;24847;48.218;16.414;2023-07-09T12:56:40;30.50;99.90
39103;DHT22;24847;48.218;16.414;2023-07-09T13:01:48;30.10;99.90
39103;DHT22;24847;48.218;16.414;2023-07-09T13:06:53;29.80;99.90
39103;DHT22;24847;48.218;16.414;2023-07-09T13:12:04;29.60;99.90
39103;DHT22;24847;48.218;16.414;2023-07-09T13:17:08;29.50;99.90
39103;DHT22;24847;48.218;16.414;2023-07-09T13:22:14;29.20;99.90
39103;DHT22;24847;48.218;16.414;2023-07-09T13:27:17;29.00;99.90
39103;DHT22;24847;48.218;16.414;2023-07-09T13:32:20;29.10;99.90
39103;DHT22;24847;48.218;16.414;2023-07-09T13:37:23;29.10;99.90
39103;DHT22;24847;48.218;16.414;2023-07-09T13:42:26;28.90;99.90
39103;DHT22;24847;48.218;16.414;2023-07-09T13:47:28;29.00;99.90
39103;DHT22;24847;48.218;16.414;2023-07-09T13:52:36;29.00;99.90
39103;DHT22;24847;48.218;16.414;2023-07-09T13:57:38;28.90;99.90
39103;DHT22;24847;48.218;16.414;2023-07-09T14:02:46;28.90;99.90
39103;DHT22;24847;48.218;16.414;2023-07-09T14:07:50;28.90;99.90
39103;DHT22;24847;48.218;16.414;2023-07-09T14:12:52;29.00;99.90
39103;DHT22;24847;48.218;16.414;2023-07-09T14:17:54;28.70;99.90
39103;DHT22;24847;48.218;16.414;2023-07-09T14:22:58;28.90;99.90
39103;DHT22;24847;48.218;16.414;2023-07-09T14:28:01;28.90;99.90
39103;DHT22;24847;48.218;16.414;2023-07-09T14:33:04;28.90;99.90
39103;DHT22;24847;48.218;16.414;2023-07-09T14:38:15;29.00;99.90
39103;DHT22;24847;48.218;16.414;2023-07-09T14:43:19;28.90;99.90
39103;DHT22;24847;48.218;16.414;2023-07-09T14:48:23;28.90;99.90
39103;DHT22;24847;48.218;16.414;2023-07-09T14:53:27;29.00;99.90
39103;DHT22;24847;48.218;16.414;2023-07-09T14:58:29;28.80;99.90
39103;DHT22;24847;48.218;16.414;2023-07-09T15:03:31;29.00;99.90
39103;DHT22;24847;48.218;16.414;2023-07-09T15:08:35;29.00;99.90
39103;DHT22;24847;48.218;16.414;2023-07-09T15:13:37;29.10;99.90
39103;DHT22;24847;48.218;16.414;2023-07-09T15:18:40;28.90;99.90
39103;DHT22;24847;48.218;16.414;2023-07-09T15:23:43;28.90;99.90
39103;DHT22;24847;48.218;16.414;2023-07-09T15:28:46;29.00;99.90
39103;DHT22;24847;48.218;16.414;2023-07-09T15:33:50;28.90;99.90
39103;DHT22;24847;48.218;16.414;2023-07-09T15:38:54;28.80;99.90
39103;DHT22;24847;48.218;16.414;2023-07-09T15:43:56;28.80;99.90
39103;DHT22;24847;48.218;16.414;2023-07-09T15:48:59;28.80;99.90
39103;DHT22;24847;48.218;16.414;2023-07-09T15:54:12;28.90;99.90
39103;DHT22;24847;48.218;16.414;2023-07-09T15:59:25;28.80;99.90
39103;DHT22;24847;48.218;16.414;2023-07-09T16:04:29;28.90;99.90
39103;DHT22;24847;48.218;16.414;2023-07-09T16:09:33;28.80;99.90
39103;DHT22;24847;48.218;16.414;2023-07-09T16:14:35;28.70;99.90
39103;DHT22;24847;48.218;16.414;2023-07-09T16:19:37;28.70;99.90
39103;DHT22;24847;48.218;16.414;2023-07-09T16:24:41;28.70;99.90
39103;DHT22;24847;48.218;16.414;2023-07-09T16:29:43;28.80;99.90
39103;DHT22;24847;48.218;16.414;2023-07-09T16:34:46;28.80;99.90
39103;DHT22;24847;48.218;16.414;2023-07-09T16:39:49;28.70;99.90
39103;DHT22;24847;48.218;16.414;2023-07-09T16:44:51;28.60;99.90
39103;DHT22;24847;48.218;16.414;2023-07-09T16:49:54;28.60;99.90
39103;DHT22;24847;48.218;16.414;2023-07-09T16:54:57;28.50;99.90
39103;DHT22;24847;48.218;16.414;2023-07-09T17:00:18;28.60;99.90
39103;DHT22;24847;48.218;16.414;2023-07-09T17:05:25;28.50;99.90
39103;DHT22;24847;48.218;16.414;2023-07-09T17:10:29;28.40;99.90
39103;DHT22;24847;48.218;16.414;2023-07-09T17:15:33;28.30;99.90
39103;DHT22;24847;48.218;16.414;2023-07-09T17:20:40;28.30;99.90
39103;DHT22;24847;48.218;16.414;2023-07-09T17:25:44;28.20;99.90
39103;DHT22;24847;48.218;16.414;2023-07-09T17:30:47;28.20;99.90
39103;DHT22;24847;48.218;16.414;2023-07-09T17:35:51;28.10;99.90
39103;DHT22;24847;48.218;16.414;2023-07-09T17:40:56;28.00;99.90
39103;DHT22;24847;48.218;16.414;2023-07-09T17:45:58;28.10;99.90
39103;DHT22;24847;48.218;16.414;2023-07-09T17:51:03;28.00;99.90
39103;DHT22;24847;48.218;16.414;2023-07-09T17:56:18;27.80;99.90
39103;DHT22;24847;48.218;16.414;2023-07-09T18:01:22;27.80;99.90
39103;DHT22;24847;48.218;16.414;2023-07-09T18:06:24;27.80;99.90
39103;DHT22;24847;48.218;16.414;2023-07-09T18:11:29;27.70;99.90
39103;DHT22;24847;48.218;16.414;2023-07-09T18:16:37;27.70;99.90
39103;DHT22;24847;48.218;16.414;2023-07-09T18:21:40;27.60;99.90
39103;DHT22;24847;48.218;16.414;2023-07-09T18:26:45;27.40;99.90
39103;DHT22;24847;48.218;16.414;2023-07-09T18:31:48;27.00;99.90
39103;DHT22;24847;48.218;16.414;2023-07-09T18:36:50;27.00;99.90
39103;DHT22;24847;48.218;16.414;2023-07-09T18:41:56;27.00;99.90
39103;DHT22;24847;48.218;16.414;2023-07-09T18:46:59;27.00;99.90
39103;DHT22;24847;48.218;16.414;2023-07-09T18:52:08;27.00;99.90
39103;DHT22;24847;48.218;16.414;2023-07-09T18:57:14;27.00;99.90
39103;DHT22;24847;48.218;16.414;2023-07-09T19:02:22;27.00;99.90
39103;DHT22;24847;48.218;16.414;2023-07-09T19:07:26;26.90;99.90
39103;DHT22;24847;48.218;16.414;2023-07-09T19:12:30;26.80;99.90
39103;DHT22;24847;48.218;16.414;2023-07-09T19:17:32;26.80;99.90
39103;DHT22;24847;48.218;16.414;2023-07-09T19:22:34;26.60;99.90
39103;DHT22;24847;48.218;16.414;2023-07-09T19:27:38;26.50;99.90
39103;DHT22;24847;48.218;16.414;2023-07-09T19:32:41;26.30;99.90
39103;DHT22;24847;48.218;16.414;2023-07-09T19:37:45;26.40;99.90
39103;DHT22;24847;48.218;16.414;2023-07-09T19:42:50;26.50;99.90
39103;DHT22;24847;48.218;16.414;2023-07-09T19:47:55;26.40;99.90
39103;DHT22;24847;48.218;16.414;2023-07-09T19:52:59;26.30;99.90
39103;DHT22;24847;48.218;16.414;2023-07-09T19:58:04;26.40;99.90
39103;DHT22;24847;48.218;16.414;2023-07-09T20:03:20;26.30;99.90
39103;DHT22;24847;48.218;16.414;2023-07-09T20:08:25;26.30;99.90
39103;DHT22;24847;48.218;16.414;2023-07-09T20:13:31;26.30;99.90
39103;DHT22;24847;48.218;16.414;2023-07-09T20:18:35;26.30;99.90
39103;DHT22;24847;48.218;16.414;2023-07-09T20:23:37;26.20;99.90
39103;DHT22;24847;48.218;16.414;2023-07-09T20:28:42;26.10;99.90
39103;DHT22;24847;48.218;16.414;2023-07-09T20:33:46;26.10;99.90
39103;DHT22;24847;48.218;16.414;2023-07-09T20:38:50;26.10;99.90
39103;DHT22;24847;48.218;16.414;2023-07-09T20:43:55;26.10;99.90
39103;DHT22;24847;48.218;16.414;2023-07-09T20:48:59;26.10;99.90
39103;DHT22;24847;48.218;16.414;2023-07-09T20:54:02;26.10;99.90
39103;DHT22;24847;48.218;16.414;2023-07-09T20:59:10;26.00;99.90
39103;DHT22;24847;48.218;16.414;2023-07-09T21:04:16;25.90;99.90
39103;DHT22;24847;48.218;16.414;2023-07-09T21:09:26;25.90;99.90
39103;DHT22;24847;48.218;16.414;2023-07-09T21:14:32;25.80;99.90
39103;DHT22;24847;48.218;16.414;2023-07-09T21:19:35;25.80;99.90
39103;DHT22;24847;48.218;16.414;2023-07-09T21:24:39;25.70;99.90
39103;DHT22;24847;48.218;16.414;2023-07-09T21:29:43;25.70;99.90
39103;DHT22;24847;48.218;16.414;2023-07-09T21:34:46;25.40;99.90
39103;DHT22;24847;48.218;16.414;2023-07-09T21:39:50;25.20;99.90
39103;DHT22;24847;48.218;16.414;2023-07-09T21:44:54;25.20;99.90
39103;DHT22;24847;48.218;16.414;2023-07-09T21:49:56;25.20;99.90
39103;DHT22;24847;48.218;16.414;2023-07-09T21:54:59;25.30;99.90
39103;DHT22;24847;48.218;16.414;2023-07-09T22:00:03;25.10;99.90
39103;DHT22;24847;48.218;16.414;2023-07-09T22:05:16;25.20;99.90
39103;DHT22;24847;48.218;16.414;2023-07-09T22:10:21;25.10;99.90
39103;DHT22;24847;48.218;16.414;2023-07-09T22:15:27;25.10;99.90
39103;DHT22;24847;48.218;16.414;2023-07-09T22:20:30;25.00;99.90
39103;DHT22;24847;48.218;16.414;2023-07-09T22:25:32;24.80;99.90
39103;DHT22;24847;48.218;16.414;2023-07-09T22:30:36;24.70;99.90
39103;DHT22;24847;48.218;16.414;2023-07-09T22:35:38;24.70;99.90
39103;DHT22;24847;48.218;16.414;2023-07-09T22:40:41;24.80;99.90
39103;DHT22;24847;48.218;16.414;2023-07-09T22:45:48;24.80;99.90
39103;DHT22;24847;48.218;16.414;2023-07-09T22:50:52;24.60;99.90
39103;DHT22;24847;48.218;16.414;2023-07-09T22:55:55;24.50;99.90
39103;DHT22;24847;48.218;16.414;2023-07-09T23:01:00;24.50;99.90
39103;DHT22;24847;48.218;16.414;2023-07-09T23:06:16;24.50;99.90
39103;DHT22;24847;48.218;16.414;2023-07-09T23:11:21;24.50;99.90
39103;DHT22;24847;48.218;16.414;2023-07-09T23:16:29;24.50;99.90
39103;DHT22;24847;48.218;16.414;2023-07-09T23:21:33;24.50;99.90
39103;DHT22;24847;48.218;16.414;2023-07-09T23:26:39;24.60;99.90
39103;DHT22;24847;48.218;16.414;2023-07-09T23:31:49;24.30;99.90
39103;DHT22;24847;48.218;16.414;2023-07-09T23:36:51;23.90;99.90
39103;DHT22;24847;48.218;16.414;2023-07-09T23:41:53;23.30;99.90
39103;DHT22;24847;48.218;16.414;2023-07-09T23:46:58;23.60;99.90
39103;DHT22;24847;48.218;16.414;2023-07-09T23:52:00;23.80;99.90
39103;DHT22;24847;48.218;16.414;2023-07-09T23:57:03;23.20;99.90
